sensor_id;sensor_type;location;lat;lon;timestamp;P1;durP1;ratioP1;P2;durP2;ratioP2
19343;SDS011;9808;52.402;16.678;2023-02-28T00:00:35;43.70;;;15.67;;
19343;SDS011;9808;52.402;16.678;2023-02-28T00:03:02;40.43;;;15.10;;
19343;SDS011;9808;52.402;16.678;2023-02-28T00:05:30;32.17;;;13.90;;
19343;SDS011;9808;52.402;16.678;2023-02-28T00:07:57;36.70;;;13.17;;
19343;SDS011;9808;52.402;16.678;2023-02-28T00:10:25;38.60;;;12.73;;
19343;SDS011;9808;52.402;16.678;2023-02-28T00:12:54;34.33;;;12.57;;
19343;SDS011;9808;52.402;16.678;2023-02-28T00:15:23;33.03;;;12.83;;
19343;SDS011;9808;52.402;16.678;2023-02-28T00:17:51;31.77;;;11.33;;
19343;SDS011;9808;52.402;16.678;2023-02-28T00:20:18;30.77;;;12.30;;
19343;SDS011;9808;52.402;16.678;2023-02-28T00:22:47;30.93;;;11.63;;
19343;SDS011;9808;52.402;16.678;2023-02-28T00:25:15;28.73;;;12.47;;
19343;SDS011;9808;52.402;16.678;2023-02-28T00:27:43;32.40;;;12.53;;
19343;SDS011;9808;52.402;16.678;2023-02-28T00:30:13;33.27;;;12.70;;
19343;SDS011;9808;52.402;16.678;2023-02-28T00:32:40;30.03;;;12.63;;
19343;SDS011;9808;52.402;16.678;2023-02-28T00:35:08;38.83;;;12.90;;
19343;SDS011;9808;52.402;16.678;2023-02-28T00:37:36;30.10;;;11.57;;
19343;SDS011;9808;52.402;16.678;2023-02-28T00:40:03;33.90;;;13.03;;
19343;SDS011;9808;52.402;16.678;2023-02-28T00:42:32;28.37;;;12.20;;
19343;SDS011;9808;52.402;16.678;2023-02-28T00:44:59;31.50;;;12.33;;
19343;SDS011;9808;52.402;16.678;2023-02-28T00:47:27;37.57;;;13.17;;
19343;SDS011;9808;52.402;16.678;2023-02-28T00:49:54;31.60;;;13.47;;
19343;SDS011;9808;52.402;16.678;2023-02-28T00:52:21;36.00;;;13.50;;
19343;SDS011;9808;52.402;16.678;2023-02-28T00:54:49;32.60;;;12.30;;
19343;SDS011;9808;52.402;16.678;2023-02-28T00:57:16;34.30;;;13.60;;
19343;SDS011;9808;52.402;16.678;2023-02-28T00:59:44;30.33;;;13.57;;
19343;SDS011;9808;52.402;16.678;2023-02-28T01:02:11;29.97;;;12.77;;
19343;SDS011;9808;52.402;16.678;2023-02-28T01:04:38;32.70;;;12.57;;
19343;SDS011;9808;52.402;16.678;2023-02-28T01:07:06;29.23;;;11.90;;
19343;SDS011;9808;52.402;16.678;2023-02-28T01:09:33;37.27;;;13.67;;
19343;SDS011;9808;52.402;16.678;2023-02-28T01:12:00;32.87;;;12.73;;
19343;SDS011;9808;52.402;16.678;2023-02-28T01:14:27;28.83;;;11.23;;
19343;SDS011;9808;52.402;16.678;2023-02-28T01:16:55;29.23;;;13.10;;
19343;SDS011;9808;52.402;16.678;2023-02-28T01:19:22;32.87;;;12.30;;
19343;SDS011;9808;52.402;16.678;2023-02-28T01:21:49;33.27;;;11.80;;
19343;SDS011;9808;52.402;16.678;2023-02-28T01:24:17;32.93;;;13.00;;
19343;SDS011;9808;52.402;16.678;2023-02-28T01:26:44;29.17;;;11.03;;
19343;SDS011;9808;52.402;16.678;2023-02-28T01:29:12;31.73;;;12.80;;
19343;SDS011;9808;52.402;16.678;2023-02-28T01:31:39;33.50;;;12.13;;
19343;SDS011;9808;52.402;16.678;2023-02-28T01:34:06;26.70;;;11.83;;
19343;SDS011;9808;52.402;16.678;2023-02-28T01:36:33;29.27;;;12.07;;
19343;SDS011;9808;52.402;16.678;2023-02-28T01:39:00;31.80;;;12.43;;
19343;SDS011;9808;52.402;16.678;2023-02-28T01:41:29;34.30;;;12.67;;
19343;SDS011;9808;52.402;16.678;2023-02-28T01:44:01;27.30;;;11.27;;
19343;SDS011;9808;52.402;16.678;2023-02-28T01:46:30;29.60;;;11.07;;
19343;SDS011;9808;52.402;16.678;2023-02-28T01:49:02;26.17;;;11.30;;
19343;SDS011;9808;52.402;16.678;2023-02-28T01:51:35;33.93;;;11.57;;
19343;SDS011;9808;52.402;16.678;2023-02-28T01:54:09;34.40;;;12.03;;
19343;SDS011;9808;52.402;16.678;2023-02-28T01:56:41;35.77;;;12.77;;
19343;SDS011;9808;52.402;16.678;2023-02-28T01:59:09;26.33;;;10.87;;
19343;SDS011;9808;52.402;16.678;2023-02-28T02:01:37;36.50;;;12.83;;
19343;SDS011;9808;52.402;16.678;2023-02-28T02:04:04;31.27;;;12.30;;
19343;SDS011;9808;52.402;16.678;2023-02-28T02:06:37;39.97;;;13.17;;
19343;SDS011;9808;52.402;16.678;2023-02-28T02:09:05;31.13;;;11.33;;
19343;SDS011;9808;52.402;16.678;2023-02-28T02:11:32;30.97;;;12.30;;
19343;SDS011;9808;52.402;16.678;2023-02-28T02:14:06;32.30;;;11.67;;
19343;SDS011;9808;52.402;16.678;2023-02-28T02:34:43;35.97;;;13.60;;
19343;SDS011;9808;52.402;16.678;2023-02-28T02:39:51;27.87;;;12.50;;
19343;SDS011;9808;52.402;16.678;2023-02-28T02:42:25;36.67;;;13.83;;
19343;SDS011;9808;52.402;16.678;2023-02-28T02:45:02;37.10;;;14.10;;
19343;SDS011;9808;52.402;16.678;2023-02-28T02:47:32;37.20;;;12.97;;
19343;SDS011;9808;52.402;16.678;2023-02-28T02:50:01;33.97;;;12.93;;
19343;SDS011;9808;52.402;16.678;2023-02-28T02:52:32;35.53;;;14.07;;
19343;SDS011;9808;52.402;16.678;2023-02-28T02:55:02;31.70;;;13.07;;
19343;SDS011;9808;52.402;16.678;2023-02-28T02:57:33;34.40;;;13.27;;
19343;SDS011;9808;52.402;16.678;2023-02-28T03:00:03;37.50;;;13.50;;
19343;SDS011;9808;52.402;16.678;2023-02-28T03:02:31;36.67;;;13.37;;
19343;SDS011;9808;52.402;16.678;2023-02-28T03:05:01;38.43;;;13.00;;
19343;SDS011;9808;52.402;16.678;2023-02-28T03:07:30;35.13;;;12.63;;
19343;SDS011;9808;52.402;16.678;2023-02-28T03:09:57;40.67;;;14.13;;
19343;SDS011;9808;52.402;16.678;2023-02-28T03:12:28;38.77;;;13.87;;
19343;SDS011;9808;52.402;16.678;2023-02-28T03:15:07;34.73;;;12.83;;
19343;SDS011;9808;52.402;16.678;2023-02-28T03:17:40;37.80;;;14.37;;
19343;SDS011;9808;52.402;16.678;2023-02-28T03:23:23;35.87;;;14.13;;
19343;SDS011;9808;52.402;16.678;2023-02-28T03:25:59;36.27;;;14.47;;
19343;SDS011;9808;52.402;16.678;2023-02-28T03:28:37;37.60;;;14.60;;
19343;SDS011;9808;52.402;16.678;2023-02-28T03:31:15;32.37;;;13.53;;
19343;SDS011;9808;52.402;16.678;2023-02-28T03:33:50;34.60;;;14.07;;
19343;SDS011;9808;52.402;16.678;2023-02-28T03:36:28;35.23;;;14.50;;
19343;SDS011;9808;52.402;16.678;2023-02-28T03:41:25;33.80;;;13.57;;
19343;SDS011;9808;52.402;16.678;2023-02-28T03:43:56;34.23;;;13.17;;
19343;SDS011;9808;52.402;16.678;2023-02-28T03:46:25;38.43;;;14.03;;
19343;SDS011;9808;52.402;16.678;2023-02-28T03:48:55;40.20;;;13.47;;
19343;SDS011;9808;52.402;16.678;2023-02-28T03:51:24;40.70;;;14.03;;
19343;SDS011;9808;52.402;16.678;2023-02-28T03:53:54;33.23;;;13.33;;
19343;SDS011;9808;52.402;16.678;2023-02-28T04:01:37;40.30;;;14.83;;
19343;SDS011;9808;52.402;16.678;2023-02-28T04:04:05;36.13;;;14.03;;
19343;SDS011;9808;52.402;16.678;2023-02-28T04:06:33;33.13;;;14.07;;
19343;SDS011;9808;52.402;16.678;2023-02-28T04:09:01;32.47;;;14.10;;
19343;SDS011;9808;52.402;16.678;2023-02-28T04:11:36;42.27;;;14.90;;
19343;SDS011;9808;52.402;16.678;2023-02-28T04:14:04;41.47;;;15.27;;
19343;SDS011;9808;52.402;16.678;2023-02-28T04:16:32;39.33;;;14.23;;
19343;SDS011;9808;52.402;16.678;2023-02-28T04:19:02;38.40;;;14.27;;
19343;SDS011;9808;52.402;16.678;2023-02-28T04:21:31;43.20;;;14.23;;
19343;SDS011;9808;52.402;16.678;2023-02-28T04:23:59;37.43;;;15.30;;
19343;SDS011;9808;52.402;16.678;2023-02-28T04:26:33;43.17;;;15.93;;
19343;SDS011;9808;52.402;16.678;2023-02-28T04:29:06;35.03;;;14.50;;
19343;SDS011;9808;52.402;16.678;2023-02-28T04:31:34;35.90;;;14.87;;
19343;SDS011;9808;52.402;16.678;2023-02-28T04:34:02;39.73;;;14.53;;
19343;SDS011;9808;52.402;16.678;2023-02-28T04:36:29;37.13;;;15.07;;
19343;SDS011;9808;52.402;16.678;2023-02-28T04:38:56;33.00;;;14.00;;
19343;SDS011;9808;52.402;16.678;2023-02-28T04:41:24;43.23;;;15.33;;
19343;SDS011;9808;52.402;16.678;2023-02-28T04:43:53;37.60;;;15.83;;
19343;SDS011;9808;52.402;16.678;2023-02-28T04:46:20;38.47;;;15.43;;
19343;SDS011;9808;52.402;16.678;2023-02-28T04:48:47;36.53;;;14.50;;
19343;SDS011;9808;52.402;16.678;2023-02-28T04:51:16;35.73;;;14.83;;
19343;SDS011;9808;52.402;16.678;2023-02-28T04:53:44;41.03;;;14.80;;
19343;SDS011;9808;52.402;16.678;2023-02-28T04:56:12;42.00;;;16.37;;
19343;SDS011;9808;52.402;16.678;2023-02-28T04:58:39;41.50;;;15.23;;
19343;SDS011;9808;52.402;16.678;2023-02-28T05:01:14;37.57;;;14.97;;
19343;SDS011;9808;52.402;16.678;2023-02-28T05:03:42;45.40;;;15.80;;
19343;SDS011;9808;52.402;16.678;2023-02-28T05:06:10;42.17;;;15.07;;
19343;SDS011;9808;52.402;16.678;2023-02-28T05:08:38;43.97;;;15.93;;
19343;SDS011;9808;52.402;16.678;2023-02-28T05:11:07;37.80;;;15.63;;
19343;SDS011;9808;52.402;16.678;2023-02-28T05:13:34;46.13;;;17.60;;
19343;SDS011;9808;52.402;16.678;2023-02-28T05:16:02;47.13;;;16.00;;
19343;SDS011;9808;52.402;16.678;2023-02-28T05:18:29;39.83;;;15.47;;
19343;SDS011;9808;52.402;16.678;2023-02-28T05:20:56;55.73;;;17.00;;
19343;SDS011;9808;52.402;16.678;2023-02-28T05:23:23;44.53;;;16.77;;
19343;SDS011;9808;52.402;16.678;2023-02-28T05:25:50;43.87;;;15.53;;
19343;SDS011;9808;52.402;16.678;2023-02-28T05:28:19;42.77;;;16.00;;
19343;SDS011;9808;52.402;16.678;2023-02-28T05:30:46;45.90;;;17.53;;
19343;SDS011;9808;52.402;16.678;2023-02-28T05:33:13;45.97;;;17.97;;
19343;SDS011;9808;52.402;16.678;2023-02-28T05:35:41;43.10;;;16.70;;
19343;SDS011;9808;52.402;16.678;2023-02-28T05:38:08;48.13;;;17.20;;
19343;SDS011;9808;52.402;16.678;2023-02-28T05:40:37;41.23;;;16.93;;
19343;SDS011;9808;52.402;16.678;2023-02-28T05:43:05;41.13;;;17.03;;
19343;SDS011;9808;52.402;16.678;2023-02-28T05:45:32;39.67;;;16.40;;
19343;SDS011;9808;52.402;16.678;2023-02-28T05:47:59;49.30;;;16.43;;
19343;SDS011;9808;52.402;16.678;2023-02-28T05:50:27;38.13;;;15.30;;
19343;SDS011;9808;52.402;16.678;2023-02-28T05:52:54;51.90;;;17.93;;
19343;SDS011;9808;52.402;16.678;2023-02-28T05:55:21;43.53;;;16.23;;
19343;SDS011;9808;52.402;16.678;2023-02-28T05:57:48;49.50;;;16.67;;
19343;SDS011;9808;52.402;16.678;2023-02-28T06:00:16;43.37;;;17.10;;
19343;SDS011;9808;52.402;16.678;2023-02-28T06:02:44;51.60;;;18.47;;
19343;SDS011;9808;52.402;16.678;2023-02-28T06:05:15;48.20;;;17.60;;
19343;SDS011;9808;52.402;16.678;2023-02-28T06:07:43;53.30;;;18.03;;
19343;SDS011;9808;52.402;16.678;2023-02-28T06:10:10;45.77;;;17.47;;
19343;SDS011;9808;52.402;16.678;2023-02-28T06:12:38;51.60;;;18.87;;
19343;SDS011;9808;52.402;16.678;2023-02-28T06:15:10;41.70;;;17.93;;
19343;SDS011;9808;52.402;16.678;2023-02-28T06:17:39;51.73;;;18.90;;
19343;SDS011;9808;52.402;16.678;2023-02-28T06:20:07;51.07;;;18.73;;
19343;SDS011;9808;52.402;16.678;2023-02-28T06:22:37;55.07;;;20.13;;
19343;SDS011;9808;52.402;16.678;2023-02-28T06:25:05;52.10;;;18.93;;
19343;SDS011;9808;52.402;16.678;2023-02-28T06:27:32;52.50;;;18.97;;
19343;SDS011;9808;52.402;16.678;2023-02-28T06:30:00;50.60;;;19.50;;
19343;SDS011;9808;52.402;16.678;2023-02-28T06:32:27;47.73;;;20.27;;
19343;SDS011;9808;52.402;16.678;2023-02-28T06:34:54;50.93;;;18.70;;
19343;SDS011;9808;52.402;16.678;2023-02-28T06:37:23;55.97;;;20.17;;
19343;SDS011;9808;52.402;16.678;2023-02-28T06:39:54;61.07;;;21.13;;
19343;SDS011;9808;52.402;16.678;2023-02-28T06:42:24;55.37;;;21.43;;
19343;SDS011;9808;52.402;16.678;2023-02-28T06:44:55;57.10;;;20.70;;
19343;SDS011;9808;52.402;16.678;2023-02-28T06:47:24;54.53;;;22.80;;
19343;SDS011;9808;52.402;16.678;2023-02-28T06:49:51;73.53;;;21.57;;
19343;SDS011;9808;52.402;16.678;2023-02-28T06:52:18;65.70;;;23.73;;
19343;SDS011;9808;52.402;16.678;2023-02-28T06:54:46;53.60;;;21.47;;
19343;SDS011;9808;52.402;16.678;2023-02-28T06:57:13;61.50;;;22.77;;
19343;SDS011;9808;52.402;16.678;2023-02-28T06:59:41;60.40;;;23.40;;
19343;SDS011;9808;52.402;16.678;2023-02-28T07:02:08;61.17;;;22.53;;
19343;SDS011;9808;52.402;16.678;2023-02-28T07:04:35;64.00;;;24.23;;
19343;SDS011;9808;52.402;16.678;2023-02-28T07:07:02;54.13;;;23.00;;
19343;SDS011;9808;52.402;16.678;2023-02-28T07:09:30;67.77;;;24.53;;
19343;SDS011;9808;52.402;16.678;2023-02-28T07:11:57;63.07;;;21.93;;
19343;SDS011;9808;52.402;16.678;2023-02-28T07:14:26;51.93;;;21.90;;
19343;SDS011;9808;52.402;16.678;2023-02-28T07:16:53;55.90;;;22.17;;
19343;SDS011;9808;52.402;16.678;2023-02-28T07:19:20;56.57;;;22.60;;
19343;SDS011;9808;52.402;16.678;2023-02-28T07:21:48;57.60;;;23.10;;
19343;SDS011;9808;52.402;16.678;2023-02-28T07:24:15;53.83;;;20.60;;
19343;SDS011;9808;52.402;16.678;2023-02-28T07:26:44;48.87;;;21.30;;
19343;SDS011;9808;52.402;16.678;2023-02-28T07:29:11;55.73;;;21.37;;
19343;SDS011;9808;52.402;16.678;2023-02-28T07:31:38;48.93;;;21.47;;
19343;SDS011;9808;52.402;16.678;2023-02-28T07:34:05;51.90;;;21.00;;
19343;SDS011;9808;52.402;16.678;2023-02-28T07:36:33;44.97;;;19.97;;
19343;SDS011;9808;52.402;16.678;2023-02-28T07:39:00;48.20;;;20.50;;
19343;SDS011;9808;52.402;16.678;2023-02-28T07:41:27;48.70;;;20.40;;
19343;SDS011;9808;52.402;16.678;2023-02-28T07:43:56;49.03;;;19.20;;
19343;SDS011;9808;52.402;16.678;2023-02-28T07:46:25;48.07;;;20.87;;
19343;SDS011;9808;52.402;16.678;2023-02-28T07:48:55;47.00;;;19.60;;
19343;SDS011;9808;52.402;16.678;2023-02-28T07:51:25;42.00;;;18.87;;
19343;SDS011;9808;52.402;16.678;2023-02-28T07:53:53;46.63;;;19.13;;
19343;SDS011;9808;52.402;16.678;2023-02-28T07:56:20;47.87;;;19.40;;
19343;SDS011;9808;52.402;16.678;2023-02-28T07:58:48;42.50;;;19.37;;
19343;SDS011;9808;52.402;16.678;2023-02-28T08:01:15;43.40;;;18.43;;
19343;SDS011;9808;52.402;16.678;2023-02-28T08:03:43;50.50;;;19.70;;
19343;SDS011;9808;52.402;16.678;2023-02-28T08:06:15;39.20;;;19.53;;
19343;SDS011;9808;52.402;16.678;2023-02-28T08:08:42;45.50;;;18.97;;
19343;SDS011;9808;52.402;16.678;2023-02-28T08:11:10;47.47;;;18.23;;
19343;SDS011;9808;52.402;16.678;2023-02-28T08:13:37;35.77;;;17.27;;
19343;SDS011;9808;52.402;16.678;2023-02-28T08:16:05;39.97;;;17.40;;
19343;SDS011;9808;52.402;16.678;2023-02-28T08:18:32;50.57;;;18.43;;
19343;SDS011;9808;52.402;16.678;2023-02-28T08:21:04;37.60;;;16.23;;
19343;SDS011;9808;52.402;16.678;2023-02-28T08:23:32;36.53;;;16.13;;
19343;SDS011;9808;52.402;16.678;2023-02-28T08:25:59;38.87;;;15.90;;
19343;SDS011;9808;52.402;16.678;2023-02-28T08:28:26;39.30;;;16.13;;
19343;SDS011;9808;52.402;16.678;2023-02-28T08:30:54;32.10;;;14.93;;
19343;SDS011;9808;52.402;16.678;2023-02-28T08:33:22;35.97;;;15.77;;
19343;SDS011;9808;52.402;16.678;2023-02-28T08:35:52;32.40;;;14.73;;
19343;SDS011;9808;52.402;16.678;2023-02-28T08:38:19;35.30;;;16.20;;
19343;SDS011;9808;52.402;16.678;2023-02-28T08:40:47;38.23;;;15.47;;
19343;SDS011;9808;52.402;16.678;2023-02-28T08:43:14;33.73;;;15.50;;
19343;SDS011;9808;52.402;16.678;2023-02-28T08:45:41;31.33;;;12.87;;
19343;SDS011;9808;52.402;16.678;2023-02-28T08:48:09;35.70;;;14.43;;
19343;SDS011;9808;52.402;16.678;2023-02-28T08:50:36;33.13;;;13.57;;
19343;SDS011;9808;52.402;16.678;2023-02-28T08:53:03;35.97;;;14.00;;
19343;SDS011;9808;52.402;16.678;2023-02-28T08:55:30;30.83;;;14.37;;
19343;SDS011;9808;52.402;16.678;2023-02-28T08:57:58;33.57;;;14.07;;
19343;SDS011;9808;52.402;16.678;2023-02-28T09:00:25;31.53;;;13.93;;
19343;SDS011;9808;52.402;16.678;2023-02-28T09:02:52;27.73;;;12.70;;
19343;SDS011;9808;52.402;16.678;2023-02-28T09:05:20;27.43;;;12.70;;
19343;SDS011;9808;52.402;16.678;2023-02-28T09:07:49;27.80;;;11.63;;
19343;SDS011;9808;52.402;16.678;2023-02-28T09:10:16;28.57;;;11.87;;
19343;SDS011;9808;52.402;16.678;2023-02-28T09:12:44;23.43;;;11.87;;
19343;SDS011;9808;52.402;16.678;2023-02-28T09:15:13;26.93;;;10.20;;
19343;SDS011;9808;52.402;16.678;2023-02-28T09:17:40;26.83;;;11.43;;
19343;SDS011;9808;52.402;16.678;2023-02-28T09:20:09;21.87;;;9.27;;
19343;SDS011;9808;52.402;16.678;2023-02-28T09:22:37;23.60;;;8.73;;
19343;SDS011;9808;52.402;16.678;2023-02-28T09:25:05;27.03;;;9.73;;
19343;SDS011;9808;52.402;16.678;2023-02-28T09:27:32;16.57;;;7.70;;
19343;SDS011;9808;52.402;16.678;2023-02-28T09:29:59;20.60;;;7.87;;
19343;SDS011;9808;52.402;16.678;2023-02-28T09:32:26;19.23;;;7.20;;
19343;SDS011;9808;52.402;16.678;2023-02-28T09:34:54;21.63;;;8.83;;
19343;SDS011;9808;52.402;16.678;2023-02-28T09:37:21;21.90;;;9.10;;
19343;SDS011;9808;52.402;16.678;2023-02-28T09:39:49;26.97;;;11.03;;
19343;SDS011;9808;52.402;16.678;2023-02-28T09:42:25;24.67;;;8.97;;
19343;SDS011;9808;52.402;16.678;2023-02-28T09:44:55;23.67;;;8.93;;
19343;SDS011;9808;52.402;16.678;2023-02-28T09:47:39;24.43;;;9.17;;
19343;SDS011;9808;52.402;16.678;2023-02-28T09:52:53;21.73;;;9.60;;
19343;SDS011;9808;52.402;16.678;2023-02-28T09:55:32;22.57;;;9.10;;
19343;SDS011;9808;52.402;16.678;2023-02-28T09:58:16;22.70;;;9.07;;
19343;SDS011;9808;52.402;16.678;2023-02-28T10:00:46;26.87;;;9.57;;
19343;SDS011;9808;52.402;16.678;2023-02-28T10:03:25;20.73;;;9.33;;
19343;SDS011;9808;52.402;16.678;2023-02-28T10:06:03;20.53;;;8.80;;
19343;SDS011;9808;52.402;16.678;2023-02-28T10:08:36;24.60;;;9.17;;
19343;SDS011;9808;52.402;16.678;2023-02-28T10:11:07;19.20;;;9.10;;
19343;SDS011;9808;52.402;16.678;2023-02-28T10:16:08;22.27;;;8.50;;
19343;SDS011;9808;52.402;16.678;2023-02-28T10:18:45;24.80;;;9.63;;
19343;SDS011;9808;52.402;16.678;2023-02-28T10:21:24;21.03;;;9.63;;
19343;SDS011;9808;52.402;16.678;2023-02-28T10:23:56;22.27;;;8.13;;
19343;SDS011;9808;52.402;16.678;2023-02-28T10:26:26;23.47;;;8.63;;
19343;SDS011;9808;52.402;16.678;2023-02-28T10:28:55;21.80;;;8.13;;
19343;SDS011;9808;52.402;16.678;2023-02-28T10:31:23;14.87;;;6.70;;
19343;SDS011;9808;52.402;16.678;2023-02-28T10:33:51;17.80;;;6.03;;
19343;SDS011;9808;52.402;16.678;2023-02-28T10:36:19;14.17;;;5.80;;
19343;SDS011;9808;52.402;16.678;2023-02-28T10:38:47;18.57;;;6.83;;
19343;SDS011;9808;52.402;16.678;2023-02-28T10:41:16;17.47;;;6.00;;
19343;SDS011;9808;52.402;16.678;2023-02-28T10:43:44;14.00;;;5.93;;
19343;SDS011;9808;52.402;16.678;2023-02-28T10:46:15;18.33;;;6.83;;
19343;SDS011;9808;52.402;16.678;2023-02-28T10:49:02;19.93;;;7.10;;
19343;SDS011;9808;52.402;16.678;2023-02-28T10:51:37;15.53;;;6.67;;
19343;SDS011;9808;52.402;16.678;2023-02-28T10:54:05;16.40;;;6.60;;
19343;SDS011;9808;52.402;16.678;2023-02-28T10:56:32;14.17;;;5.83;;
19343;SDS011;9808;52.402;16.678;2023-02-28T11:01:46;18.63;;;7.43;;
19343;SDS011;9808;52.402;16.678;2023-02-28T11:04:31;16.60;;;6.30;;
19343;SDS011;9808;52.402;16.678;2023-02-28T11:09:37;19.13;;;6.67;;
19343;SDS011;9808;52.402;16.678;2023-02-28T11:12:06;14.13;;;5.93;;
19343;SDS011;9808;52.402;16.678;2023-02-28T11:14:47;15.67;;;5.93;;
19343;SDS011;9808;52.402;16.678;2023-02-28T11:17:49;17.77;;;5.37;;
19343;SDS011;9808;52.402;16.678;2023-02-28T11:20:13;14.20;;;5.77;;
19343;SDS011;9808;52.402;16.678;2023-02-28T11:22:45;14.77;;;5.50;;
19343;SDS011;9808;52.402;16.678;2023-02-28T11:25:24;13.57;;;5.67;;
19343;SDS011;9808;52.402;16.678;2023-02-28T11:27:53;17.93;;;5.70;;
19343;SDS011;9808;52.402;16.678;2023-02-28T11:30:37;16.53;;;6.03;;
19343;SDS011;9808;52.402;16.678;2023-02-28T11:33:21;13.67;;;5.57;;
19343;SDS011;9808;52.402;16.678;2023-02-28T11:35:49;15.70;;;5.87;;
19343;SDS011;9808;52.402;16.678;2023-02-28T11:38:16;12.80;;;5.53;;
19343;SDS011;9808;52.402;16.678;2023-02-28T11:48:27;17.17;;;6.83;;
19343;SDS011;9808;52.402;16.678;2023-02-28T11:51:05;17.73;;;7.17;;
19343;SDS011;9808;52.402;16.678;2023-02-28T11:53:47;16.63;;;6.27;;
19343;SDS011;9808;52.402;16.678;2023-02-28T11:59:06;14.97;;;6.37;;
19343;SDS011;9808;52.402;16.678;2023-02-28T12:06:45;17.83;;;6.30;;
19343;SDS011;9808;52.402;16.678;2023-02-28T12:11:45;16.23;;;6.87;;
19343;SDS011;9808;52.402;16.678;2023-02-28T12:14:22;15.87;;;6.03;;
19343;SDS011;9808;52.402;16.678;2023-02-28T12:27:10;22.43;;;6.97;;
19343;SDS011;9808;52.402;16.678;2023-02-28T12:30:25;15.53;;;6.47;;
19343;SDS011;9808;52.402;16.678;2023-02-28T12:32:29;16.83;;;7.40;;
19343;SDS011;9808;52.402;16.678;2023-02-28T12:35:00;18.83;;;7.10;;
19343;SDS011;9808;52.402;16.678;2023-02-28T12:37:34;18.80;;;7.43;;
19343;SDS011;9808;52.402;16.678;2023-02-28T12:40:05;17.60;;;7.47;;
19343;SDS011;9808;52.402;16.678;2023-02-28T12:42:36;18.60;;;6.83;;
19343;SDS011;9808;52.402;16.678;2023-02-28T12:45:08;19.57;;;7.87;;
19343;SDS011;9808;52.402;16.678;2023-02-28T12:47:38;13.97;;;7.07;;
19343;SDS011;9808;52.402;16.678;2023-02-28T12:50:08;15.33;;;7.07;;
19343;SDS011;9808;52.402;16.678;2023-02-28T12:57:51;20.53;;;7.67;;
19343;SDS011;9808;52.402;16.678;2023-02-28T13:00:21;15.60;;;7.40;;
19343;SDS011;9808;52.402;16.678;2023-02-28T13:10:58;17.50;;;6.53;;
19343;SDS011;9808;52.402;16.678;2023-02-28T13:13:29;15.77;;;6.93;;
19343;SDS011;9808;52.402;16.678;2023-02-28T13:16:07;19.57;;;7.00;;
19343;SDS011;9808;52.402;16.678;2023-02-28T13:18:36;17.20;;;7.03;;
19343;SDS011;9808;52.402;16.678;2023-02-28T13:21:06;17.23;;;6.60;;
19343;SDS011;9808;52.402;16.678;2023-02-28T13:23:56;15.63;;;6.93;;
19343;SDS011;9808;52.402;16.678;2023-02-28T13:28:58;15.63;;;6.67;;
19343;SDS011;9808;52.402;16.678;2023-02-28T13:31:26;19.27;;;8.07;;
19343;SDS011;9808;52.402;16.678;2023-02-28T13:36:29;14.33;;;6.73;;
19343;SDS011;9808;52.402;16.678;2023-02-28T13:39:01;19.43;;;7.47;;
19343;SDS011;9808;52.402;16.678;2023-02-28T13:44:05;16.17;;;6.80;;
19343;SDS011;9808;52.402;16.678;2023-02-28T13:46:33;19.70;;;7.23;;
19343;SDS011;9808;52.402;16.678;2023-02-28T14:05:00;24.10;;;7.43;;
19343;SDS011;9808;52.402;16.678;2023-02-28T14:07:30;14.70;;;6.83;;
19343;SDS011;9808;52.402;16.678;2023-02-28T14:10:03;18.47;;;5.93;;
19343;SDS011;9808;52.402;16.678;2023-02-28T14:15:30;15.57;;;7.07;;
19343;SDS011;9808;52.402;16.678;2023-02-28T14:18:02;18.03;;;7.70;;
19343;SDS011;9808;52.402;16.678;2023-02-28T14:20:31;16.77;;;7.67;;
19343;SDS011;9808;52.402;16.678;2023-02-28T14:25:33;19.07;;;7.07;;
19343;SDS011;9808;52.402;16.678;2023-02-28T14:38:17;19.03;;;6.50;;
19343;SDS011;9808;52.402;16.678;2023-02-28T14:40:47;17.40;;;6.93;;
19343;SDS011;9808;52.402;16.678;2023-02-28T14:43:21;21.53;;;6.90;;
19343;SDS011;9808;52.402;16.678;2023-02-28T14:45:49;16.40;;;6.50;;
19343;SDS011;9808;52.402;16.678;2023-02-28T14:48:17;16.07;;;5.80;;
19343;SDS011;9808;52.402;16.678;2023-02-28T14:50:49;11.67;;;5.27;;
19343;SDS011;9808;52.402;16.678;2023-02-28T14:53:18;15.90;;;6.07;;
19343;SDS011;9808;52.402;16.678;2023-02-28T14:55:47;22.47;;;6.37;;
19343;SDS011;9808;52.402;16.678;2023-02-28T14:58:28;17.77;;;6.47;;
19343;SDS011;9808;52.402;16.678;2023-02-28T15:00:57;14.47;;;5.87;;
19343;SDS011;9808;52.402;16.678;2023-02-28T15:03:32;14.87;;;6.03;;
19343;SDS011;9808;52.402;16.678;2023-02-28T15:06:01;12.40;;;5.70;;
19343;SDS011;9808;52.402;16.678;2023-02-28T15:08:29;14.30;;;5.77;;
19343;SDS011;9808;52.402;16.678;2023-02-28T15:11:02;12.13;;;5.77;;
19343;SDS011;9808;52.402;16.678;2023-02-28T15:13:35;14.47;;;5.30;;
19343;SDS011;9808;52.402;16.678;2023-02-28T15:16:22;13.40;;;5.47;;
19343;SDS011;9808;52.402;16.678;2023-02-28T15:18:54;15.17;;;5.73;;
19343;SDS011;9808;52.402;16.678;2023-02-28T15:21:24;17.23;;;6.53;;
19343;SDS011;9808;52.402;16.678;2023-02-28T15:24:06;17.47;;;6.00;;
19343;SDS011;9808;52.402;16.678;2023-02-28T15:27:19;14.57;;;5.60;;
19343;SDS011;9808;52.402;16.678;2023-02-28T15:29:26;13.80;;;5.73;;
19343;SDS011;9808;52.402;16.678;2023-02-28T15:32:01;13.63;;;6.30;;
19343;SDS011;9808;52.402;16.678;2023-02-28T15:37:27;27.30;;;6.67;;
19343;SDS011;9808;52.402;16.678;2023-02-28T15:39:56;17.13;;;7.13;;
19343;SDS011;9808;52.402;16.678;2023-02-28T15:42:27;13.63;;;6.17;;
19343;SDS011;9808;52.402;16.678;2023-02-28T15:44:54;20.53;;;7.13;;
19343;SDS011;9808;52.402;16.678;2023-02-28T15:47:24;18.97;;;8.17;;
19343;SDS011;9808;52.402;16.678;2023-02-28T15:52:39;31.33;;;11.80;;
19343;SDS011;9808;52.402;16.678;2023-02-28T15:55:08;19.67;;;8.57;;
19343;SDS011;9808;52.402;16.678;2023-02-28T15:57:38;16.40;;;7.27;;
19343;SDS011;9808;52.402;16.678;2023-02-28T16:00:10;16.87;;;7.37;;
19343;SDS011;9808;52.402;16.678;2023-02-28T16:02:38;16.73;;;7.37;;
19343;SDS011;9808;52.402;16.678;2023-02-28T16:07:40;27.17;;;9.50;;
19343;SDS011;9808;52.402;16.678;2023-02-28T16:10:08;29.07;;;10.57;;
19343;SDS011;9808;52.402;16.678;2023-02-28T16:12:37;25.07;;;10.73;;
19343;SDS011;9808;52.402;16.678;2023-02-28T16:15:18;30.03;;;12.47;;
19343;SDS011;9808;52.402;16.678;2023-02-28T16:17:46;32.17;;;12.90;;
19343;SDS011;9808;52.402;16.678;2023-02-28T16:20:15;36.23;;;14.33;;
19343;SDS011;9808;52.402;16.678;2023-02-28T16:22:42;57.20;;;22.17;;
19343;SDS011;9808;52.402;16.678;2023-02-28T16:25:13;101.63;;;31.70;;
19343;SDS011;9808;52.402;16.678;2023-02-28T16:27:40;98.53;;;32.63;;
19343;SDS011;9808;52.402;16.678;2023-02-28T16:30:22;80.53;;;26.97;;
19343;SDS011;9808;52.402;16.678;2023-02-28T16:32:50;59.43;;;22.10;;
19343;SDS011;9808;52.402;16.678;2023-02-28T16:35:18;69.50;;;23.13;;
19343;SDS011;9808;52.402;16.678;2023-02-28T16:37:46;121.90;;;32.80;;
19343;SDS011;9808;52.402;16.678;2023-02-28T16:40:14;178.23;;;44.80;;
19343;SDS011;9808;52.402;16.678;2023-02-28T16:42:42;198.23;;;47.17;;
19343;SDS011;9808;52.402;16.678;2023-02-28T16:45:31;205.23;;;51.43;;
19343;SDS011;9808;52.402;16.678;2023-02-28T16:47:57;169.67;;;44.27;;
19343;SDS011;9808;52.402;16.678;2023-02-28T16:50:26;176.17;;;53.23;;
19343;SDS011;9808;52.402;16.678;2023-02-28T16:52:53;157.07;;;49.73;;